createdAt,value
2017-01-31T00:11:49.144Z,0
2017-01-31T00:12:34.216Z,0
2017-01-31T00:18:12.385Z,0
2017-01-31T00:22:17.930Z,0
2017-01-31T00:23:09.617Z,0
2017-01-31T00:30:12.769Z,0
2017-01-31T00:30:57.571Z,0
2017-01-31T00:31:41.682Z,0
2017-01-31T00:32:41.465Z,0
2017-01-31T00:33:23.552Z,0
2017-01-31T00:34:09.569Z,0
2017-01-31T01:16:32.144Z,0
2017-01-31T01:17:14.129Z,0
2017-01-31T01:17:57.221Z,0
2017-01-31T01:18:41.149Z,0
2017-01-31T01:19:26.122Z,0
2017-01-31T06:19:15.010Z,0
2017-01-31T06:19:57.686Z,0
2017-01-31T06:30:37.221Z,0
2017-01-31T06:34:26.384Z,0
2017-01-31T06:37:07.917Z,4
2017-01-31T06:37:49.275Z,4
2017-01-31T06:41:38.624Z,8
2017-01-31T06:42:19.076Z,8
2017-01-31T07:17:52.357Z,220
2017-01-31T07:18:33.580Z,232
2017-01-31T07:22:43.213Z,340
2017-01-31T07:23:23.741Z,332
2017-01-31T07:25:45.772Z,380
2017-01-31T07:26:27.524Z,400
2017-01-31T07:27:08.655Z,396
2017-01-31T07:27:50.730Z,384
2017-01-31T07:28:31.192Z,380
2017-01-31T07:29:11.644Z,392
2017-01-31T07:29:52.732Z,412
2017-01-31T07:30:33.205Z,436
2017-01-31T07:31:14.545Z,456
2017-01-31T07:31:55.742Z,480
2017-01-31T07:32:37.938Z,504
2017-01-31T07:33:18.381Z,504
2017-01-31T07:33:59.460Z,524
2017-01-31T07:34:39.931Z,588
2017-01-31T07:35:22.134Z,632
2017-01-31T07:36:02.695Z,636
2017-01-31T07:36:45.960Z,596
2017-01-31T07:37:27.026Z,572
2017-01-31T07:38:07.490Z,572
2017-01-31T07:38:49.446Z,580
2017-01-31T07:39:29.904Z,600
2017-01-31T07:40:10.971Z,612
2017-01-31T07:40:52.341Z,612
2017-01-31T07:41:32.816Z,624
2017-01-31T07:42:13.360Z,660
2017-01-31T07:42:53.821Z,728
2017-01-31T07:43:36.027Z,808
2017-01-31T07:44:16.466Z,852
2017-01-31T07:45:00.465Z,884
2017-01-31T08:12:59.676Z,1244
2017-01-31T08:13:40.100Z,1272
2017-01-31T08:14:22.237Z,1312
2017-01-31T08:15:03.648Z,1364
2017-01-31T08:15:44.120Z,1412
2017-01-31T08:16:25.546Z,1452
2017-01-31T08:17:08.671Z,1516
2017-01-31T08:17:49.103Z,1576
2017-01-31T08:18:30.353Z,1584
2017-01-31T08:19:10.811Z,1544
2017-01-31T08:19:53.697Z,1472
2017-01-31T08:20:45.954Z,1460
2017-01-31T08:21:28.660Z,1504
2017-01-31T08:22:09.083Z,1540
2017-01-31T08:22:49.552Z,1544
2017-01-31T08:23:30.989Z,1500
2017-01-31T08:24:11.413Z,1448
2017-01-31T08:24:55.290Z,1440
2017-01-31T08:25:37.165Z,1472
2017-01-31T08:26:17.617Z,1488
2017-01-31T08:26:59.673Z,1464
2017-01-31T08:31:15.636Z,1692
2017-01-31T08:31:56.061Z,1760
2017-01-31T09:32:46.170Z,4636
2017-01-31T09:40:33.300Z,5348
2017-01-31T09:41:14.243Z,5308
2017-01-31T09:43:47.457Z,5052
2017-01-31T09:44:32.644Z,5280
2017-01-31T09:45:33.648Z,5020
2017-01-31T10:13:38.941Z,3544
2017-01-31T10:14:20.979Z,3544
2017-01-31T10:15:02.292Z,3752
2017-01-31T10:15:43.434Z,3944
2017-01-31T10:16:24.516Z,3992
2017-01-31T10:17:05.806Z,3872
2017-01-31T10:17:46.244Z,3688
2017-01-31T10:18:28.016Z,3620
2017-01-31T10:19:08.484Z,3736
2017-01-31T10:21:26.472Z,3900
2017-01-31T10:22:07.874Z,3924
2017-01-31T10:22:50.467Z,4068
2017-01-31T10:23:30.876Z,4384
2017-01-31T10:24:13.966Z,4812
2017-01-31T10:29:36.258Z,5456
2017-01-31T10:30:19.313Z,5516
2017-01-31T10:30:59.799Z,5516
2017-01-31T10:31:46.288Z,5488
2017-01-31T10:32:26.746Z,5280
2017-01-31T10:33:09.813Z,5104
2017-01-31T10:35:23.266Z,5136
2017-01-31T10:36:06.358Z,4996
2017-01-31T10:36:46.829Z,4700
2017-01-31T10:37:29.763Z,4416
2017-01-31T10:38:10.952Z,4308
2017-01-31T10:38:51.970Z,4276
2017-01-31T10:39:34.230Z,4276
2017-01-31T10:40:14.669Z,4284
2017-01-31T10:40:55.768Z,4376
2017-01-31T10:41:36.992Z,4528
2017-01-31T11:16:10.828Z,7712
2017-01-31T11:16:54.100Z,7400
2017-01-31T11:17:35.317Z,7056
2017-01-31T11:18:15.855Z,6752
2017-01-31T11:18:56.909Z,6452
2017-01-31T12:14:01.879Z,4432
2017-01-31T12:16:16.260Z,4296
2017-01-31T12:16:57.242Z,3996
2017-01-31T12:17:38.405Z,3652
2017-01-31T12:18:20.605Z,3348
2017-01-31T12:19:06.503Z,3116
2017-01-31T12:21:41.672Z,2208
2017-01-31T12:24:17.567Z,2180
2017-01-31T12:25:06.317Z,2232
2017-01-31T12:27:20.778Z,2484
2017-01-31T21:08:07.375Z,8
2017-01-31T21:08:47.867Z,12
2017-01-31T21:09:28.376Z,32
2017-01-31T21:15:19.710Z,0
2017-01-31T21:16:00.276Z,0
2017-01-31T21:16:40.743Z,0
2017-01-31T21:17:21.220Z,0
2017-01-31T21:18:01.682Z,0
2017-01-31T21:18:42.099Z,0
2017-01-31T21:19:22.572Z,0
2017-01-31T21:20:03.061Z,0
2017-01-31T21:20:43.541Z,0
2017-01-31T21:21:24.030Z,0
2017-01-31T21:22:04.504Z,0
2017-01-31T21:22:44.957Z,0
2017-01-31T21:23:25.518Z,0
2017-01-31T21:24:05.954Z,0
2017-01-31T21:24:46.391Z,0
2017-01-31T21:25:26.902Z,0
2017-01-31T21:26:07.389Z,0
2017-01-31T21:26:47.848Z,0
2017-01-31T21:27:28.327Z,0
2017-01-31T21:28:08.826Z,0
2017-01-31T21:29:49.805Z,0
2017-01-31T21:30:30.267Z,0
2017-01-31T21:31:10.761Z,0
2017-01-31T21:31:51.230Z,0
2017-01-31T21:32:31.718Z,0
2017-01-31T21:33:12.169Z,0
2017-01-31T21:33:52.620Z,0
2017-01-31T21:34:33.127Z,0
2017-01-31T21:35:13.609Z,0
2017-01-31T21:35:54.050Z,0
2017-01-31T21:36:34.516Z,0
2017-01-31T21:37:14.971Z,0
2017-01-31T21:37:55.411Z,0
2017-01-31T21:38:35.879Z,0
2017-01-31T21:39:16.373Z,0
2017-01-31T21:39:56.849Z,0
2017-01-31T21:40:37.340Z,0
2017-01-31T21:41:17.797Z,0
2017-01-31T21:41:58.285Z,0
2017-01-31T21:42:38.735Z,0
2017-01-31T21:43:19.240Z,0
2017-01-31T21:43:59.651Z,0
2017-01-31T21:44:40.103Z,0
2017-01-31T21:45:20.553Z,0
2017-01-31T21:46:01.035Z,0
2017-01-31T21:46:41.506Z,0
2017-01-31T21:47:21.953Z,0
2017-01-31T21:48:02.409Z,0
2017-01-31T21:48:42.896Z,0
2017-01-31T21:49:23.297Z,0
2017-01-31T21:50:03.789Z,0
2017-01-31T21:50:44.245Z,0
2017-01-31T21:51:24.692Z,0
2017-01-31T21:52:05.170Z,0
2017-01-31T21:52:45.652Z,0
2017-01-31T21:53:26.113Z,0
2017-01-31T21:54:06.565Z,0
2017-01-31T21:54:47.045Z,0
2017-01-31T21:55:27.492Z,0
2017-01-31T21:56:07.916Z,0
2017-01-31T21:56:48.436Z,0
2017-01-31T21:57:28.890Z,0
2017-01-31T21:58:09.334Z,0
2017-01-31T22:00:37.378Z,0
2017-01-31T22:01:17.855Z,0
2017-01-31T22:01:58.334Z,0
2017-01-31T22:02:38.823Z,0
2017-01-31T22:03:19.300Z,0
2017-01-31T22:03:59.752Z,0
2017-01-31T22:04:41.039Z,0
2017-01-31T22:05:21.488Z,0
2017-01-31T22:06:01.922Z,0
2017-01-31T22:06:42.361Z,0
2017-01-31T22:07:22.863Z,0
2017-01-31T22:08:03.327Z,0
2017-01-31T22:08:43.923Z,0
2017-01-31T22:10:56.740Z,0
2017-01-31T22:11:37.201Z,0
2017-01-31T22:12:17.698Z,0
2017-01-31T22:12:58.168Z,0
2017-01-31T22:13:38.610Z,0
2017-01-31T22:14:19.080Z,0
2017-01-31T22:14:59.515Z,0
2017-01-31T22:15:40.013Z,0
2017-01-31T22:16:20.499Z,0
2017-01-31T22:17:00.973Z,0
2017-01-31T22:17:41.390Z,0
2017-01-31T22:18:21.855Z,0
2017-01-31T22:19:02.313Z,0
2017-01-31T22:19:42.765Z,0
2017-01-31T22:20:23.212Z,0
2017-01-31T22:21:03.698Z,0
2017-01-31T22:21:44.189Z,0
2017-01-31T22:22:24.648Z,0
2017-01-31T22:23:05.079Z,0
2017-01-31T22:23:45.549Z,0
2017-01-31T22:24:26.008Z,0
2017-01-31T22:25:06.449Z,0
2017-01-31T22:25:46.915Z,0
2017-01-31T22:26:27.398Z,0
2017-01-31T22:27:07.921Z,0
2017-01-31T22:27:48.360Z,0
2017-01-31T22:28:28.812Z,0
2017-01-31T22:29:09.293Z,0
2017-01-31T22:29:49.732Z,0
2017-01-31T22:32:02.512Z,0
2017-01-31T22:32:42.991Z,0
2017-01-31T22:33:23.462Z,0
2017-01-31T22:34:03.942Z,0
2017-01-31T22:34:44.413Z,0
2017-01-31T22:35:24.865Z,0
2017-01-31T22:36:05.348Z,0
2017-01-31T22:36:45.820Z,0
2017-01-31T22:37:26.276Z,0
2017-01-31T22:38:06.730Z,0
2017-01-31T22:38:47.183Z,0
2017-01-31T22:39:27.639Z,0
2017-01-31T22:40:08.120Z,0
2017-01-31T22:40:48.648Z,0
2017-01-31T22:41:29.123Z,0
2017-01-31T22:42:09.574Z,0
2017-01-31T22:42:50.052Z,0
2017-01-31T22:43:30.502Z,0
2017-01-31T22:44:10.947Z,0
2017-01-31T22:44:51.417Z,0
2017-01-31T22:45:31.882Z,0
2017-01-31T22:46:12.330Z,0
2017-01-31T22:46:52.811Z,0
2017-01-31T22:47:33.253Z,0
2017-01-31T22:48:13.698Z,0
2017-01-31T22:48:54.151Z,0
2017-01-31T22:49:34.645Z,0
2017-01-31T22:50:15.089Z,0
2017-01-31T22:50:55.531Z,0
2017-01-31T22:51:36.001Z,0
2017-01-31T22:52:16.504Z,0
2017-01-31T22:52:56.978Z,0
2017-01-31T22:53:37.421Z,0
2017-01-31T22:54:17.892Z,0
2017-01-31T22:54:58.355Z,0
2017-01-31T22:55:38.837Z,0
2017-01-31T22:56:19.287Z,0
2017-01-31T22:56:59.776Z,0
2017-01-31T22:57:40.201Z,0
2017-01-31T22:58:20.619Z,0
2017-01-31T22:59:01.109Z,0
2017-01-31T22:59:41.556Z,0
2017-01-31T23:00:22.002Z,0
2017-01-31T23:01:02.489Z,0
2017-01-31T23:01:42.925Z,0
2017-01-31T23:02:23.408Z,0
2017-01-31T23:04:36.086Z,0
2017-01-31T23:05:16.529Z,0
2017-01-31T23:05:56.999Z,0
2017-01-31T23:06:37.480Z,0
2017-01-31T23:07:17.919Z,0
2017-01-31T23:07:58.398Z,0
2017-01-31T23:08:38.888Z,0
2017-01-31T23:09:19.317Z,0
2017-01-31T23:09:59.746Z,0
2017-01-31T23:10:40.206Z,0
2017-01-31T23:11:20.671Z,0
2017-01-31T23:12:01.105Z,0
2017-01-31T23:12:41.581Z,0
2017-01-31T23:13:22.030Z,0
2017-01-31T23:14:02.526Z,0
2017-01-31T23:14:42.929Z,0
2017-01-31T23:15:23.402Z,0
2017-01-31T23:16:03.881Z,0
2017-01-31T23:16:44.334Z,0
2017-01-31T23:17:24.776Z,0
2017-01-31T23:18:05.235Z,0
2017-01-31T23:18:45.683Z,0
2017-01-31T23:19:26.124Z,0
2017-01-31T23:20:06.557Z,0
2017-01-31T23:20:47.020Z,0
2017-01-31T23:21:27.472Z,0
2017-01-31T23:22:07.906Z,0
2017-01-31T23:22:48.385Z,0
2017-01-31T23:23:28.810Z,0
2017-01-31T23:24:09.265Z,0
2017-01-31T23:24:49.716Z,0
2017-01-31T23:25:30.179Z,0
2017-01-31T23:26:10.634Z,0
2017-01-31T23:26:51.101Z,0
2017-01-31T23:27:31.537Z,0
2017-01-31T23:28:11.946Z,0
2017-01-31T23:30:29.832Z,0
2017-01-31T23:31:10.292Z,0
2017-01-31T23:31:50.773Z,0
2017-01-31T23:32:31.215Z,0
2017-01-31T23:33:11.684Z,0
2017-01-31T23:33:52.135Z,0
2017-01-31T23:34:32.606Z,0
2017-01-31T23:35:13.075Z,0
2017-01-31T23:35:53.533Z,0
2017-01-31T23:36:33.993Z,0
2017-01-31T23:37:14.432Z,0
2017-01-31T23:37:54.897Z,0
2017-01-31T23:38:35.361Z,0
2017-01-31T23:39:15.826Z,0
2017-01-31T23:39:56.288Z,0
2017-01-31T23:40:36.727Z,0
2017-01-31T23:41:17.204Z,0
2017-01-31T23:41:57.686Z,0
2017-01-31T23:42:38.127Z,0
2017-01-31T23:43:18.591Z,0
2017-01-31T23:43:59.013Z,0
2017-01-31T23:44:39.476Z,0
2017-01-31T23:45:19.952Z,0
2017-01-31T23:46:00.376Z,0
2017-01-31T23:46:40.836Z,0
2017-01-31T23:47:21.268Z,0
2017-01-31T23:48:01.758Z,0
2017-01-31T23:48:42.177Z,0
2017-01-31T23:49:22.627Z,0
2017-01-31T23:50:03.100Z,0
2017-01-31T23:50:43.565Z,0
2017-01-31T23:51:24.040Z,0
2017-01-31T23:52:04.522Z,0
2017-01-31T23:52:44.992Z,0
2017-01-31T23:53:25.415Z,0
2017-01-31T23:54:05.875Z,0
2017-01-31T23:54:46.345Z,0
2017-01-31T23:55:26.780Z,0
2017-01-31T23:56:07.220Z,0
2017-01-31T23:56:47.685Z,0
2017-01-31T23:57:28.114Z,0
2017-01-31T23:58:08.592Z,0
2017-01-31T23:58:49.038Z,0
2017-01-31T23:59:29.494Z,0
